createdAt,value
2023-10-06T00:02:08.908Z,2.13
2023-10-06T00:04:39.999Z,2.75
2023-10-06T00:07:09.293Z,2.65
2023-10-06T00:09:36.190Z,2.25
2023-10-06T00:12:05.348Z,2.35
2023-10-06T00:14:40.776Z,3.38
2023-10-06T00:17:18.599Z,2.40
2023-10-06T00:19:46.386Z,2.42
2023-10-06T00:22:18.782Z,2.33
2023-10-06T00:24:47.732Z,2.25
2023-10-06T00:27:14.595Z,2.65
2023-10-06T00:29:45.298Z,2.55
2023-10-06T00:32:30.084Z,2.28
2023-10-06T00:35:12.909Z,2.97
2023-10-06T00:37:40.815Z,2.17
2023-10-06T00:40:13.254Z,2.17
2023-10-06T00:42:40.264Z,2.38
2023-10-06T00:45:08.914Z,2.20
2023-10-06T00:47:42.340Z,2.50
2023-10-06T00:50:12.454Z,2.22
2023-10-06T00:52:41.115Z,1.90
2023-10-06T00:55:13.136Z,1.83
2023-10-06T00:57:41.718Z,2.05
2023-10-06T01:00:22.528Z,1.70
2023-10-06T01:02:49.652Z,1.95
2023-10-06T01:05:17.670Z,2.40
2023-10-06T01:07:48.052Z,2.00
2023-10-06T01:10:19.088Z,2.10
2023-10-06T01:12:53.231Z,1.95
2023-10-06T01:15:20.685Z,1.92
2023-10-06T01:17:48.452Z,1.92
2023-10-06T01:20:34.368Z,1.55
2023-10-06T01:23:01.857Z,2.40
2023-10-06T01:25:28.957Z,1.83
2023-10-06T01:27:55.513Z,2.20
2023-10-06T01:30:22.893Z,1.92
2023-10-06T01:32:53.037Z,2.10
2023-10-06T01:35:24.596Z,2.15
2023-10-06T01:38:01.447Z,1.60
2023-10-06T01:40:28.505Z,2.10
2023-10-06T01:42:55.229Z,1.88
2023-10-06T01:45:25.213Z,2.25
2023-10-06T01:47:57.540Z,2.13
2023-10-06T01:50:28.487Z,2.10
2023-10-06T01:52:58.561Z,1.90
2023-10-06T01:55:25.758Z,1.73
2023-10-06T01:57:52.689Z,1.98
2023-10-06T02:00:35.118Z,2.35
2023-10-06T02:03:05.626Z,1.98
2023-10-06T02:05:33.097Z,1.73
2023-10-06T02:08:02.565Z,1.63
2023-10-06T02:10:29.116Z,1.90
2023-10-06T02:12:56.577Z,1.98
2023-10-06T02:15:23.085Z,2.25
2023-10-06T02:17:51.797Z,2.08
2023-10-06T02:20:31.508Z,2.15
2023-10-06T02:22:59.453Z,1.92
2023-10-06T02:25:26.996Z,2.00
2023-10-06T02:27:57.827Z,1.75
2023-10-06T02:30:41.008Z,2.35
2023-10-06T02:33:07.607Z,1.60
2023-10-06T02:35:45.203Z,2.45
2023-10-06T02:38:11.793Z,2.42
2023-10-06T02:40:48.843Z,1.85
2023-10-06T02:43:21.287Z,2.00
2023-10-06T02:45:48.078Z,2.08
2023-10-06T02:48:18.725Z,1.60
2023-10-06T02:50:47.935Z,2.63
2023-10-06T02:53:14.657Z,1.75
2023-10-06T02:55:44.849Z,1.80
2023-10-06T03:00:38.371Z,1.95
2023-10-06T03:03:13.345Z,1.95
2023-10-06T03:05:41.108Z,1.73
2023-10-06T03:08:10.713Z,1.92
2023-10-06T03:10:44.973Z,1.95
2023-10-06T03:13:14.745Z,2.42
2023-10-06T03:15:47.730Z,1.98
2023-10-06T03:18:16.766Z,1.90
2023-10-06T03:21:14.617Z,2.00
2023-10-06T03:23:45.433Z,2.75
2023-10-06T03:26:25.927Z,2.30
2023-10-06T03:28:54.292Z,1.95
2023-10-06T03:31:21.642Z,2.00
2023-10-06T03:33:56.493Z,2.10
2023-10-06T03:36:28.457Z,2.08
2023-10-06T03:38:58.443Z,1.90
2023-10-06T03:46:36.668Z,1.73
2023-10-06T03:49:06.799Z,1.52
2023-10-06T03:51:39.443Z,2.55
2023-10-06T03:54:06.781Z,2.00
2023-10-06T03:56:33.841Z,1.80
2023-10-06T03:59:01.293Z,2.60
2023-10-06T04:01:28.054Z,2.42
2023-10-06T04:04:01.035Z,2.10
2023-10-06T04:06:28.427Z,1.95
2023-10-06T04:08:58.098Z,1.92
2023-10-06T04:11:25.476Z,2.05
2023-10-06T04:13:52.035Z,1.77
2023-10-06T04:16:18.558Z,2.10
2023-10-06T04:18:49.128Z,2.55
2023-10-06T04:21:16.586Z,1.75
2023-10-06T04:23:43.354Z,2.38
2023-10-06T04:26:11.416Z,2.15
2023-10-06T04:28:38.995Z,2.28
2023-10-06T04:31:08.919Z,2.15
2023-10-06T04:33:35.829Z,2.85
2023-10-06T04:36:13.042Z,2.42
2023-10-06T04:38:41.121Z,2.22
2023-10-06T04:41:11.437Z,2.60
2023-10-06T04:43:45.580Z,2.08
2023-10-06T04:46:13.725Z,2.50
2023-10-06T04:48:40.304Z,2.72
2023-10-06T04:51:07.489Z,1.88
2023-10-06T04:53:37.660Z,2.45
2023-10-06T04:56:05.707Z,2.33
2023-10-06T04:58:33.008Z,2.08
2023-10-06T05:01:03.460Z,2.22
2023-10-06T05:03:43.714Z,2.42
2023-10-06T05:06:18.304Z,2.35
2023-10-06T05:08:50.361Z,2.55
2023-10-06T05:11:18.973Z,2.80
2023-10-06T05:13:49.223Z,2.30
2023-10-06T05:18:43.112Z,2.22
2023-10-06T05:21:10.188Z,2.05
2023-10-06T05:23:36.713Z,2.15
2023-10-06T05:26:09.590Z,2.35
2023-10-06T05:28:38.593Z,2.72
2023-10-06T05:31:08.445Z,1.80
2023-10-06T05:33:35.671Z,2.13
2023-10-06T05:36:21.192Z,2.60
2023-10-06T05:38:48.021Z,2.60
2023-10-06T05:41:16.388Z,2.78
2023-10-06T05:43:44.696Z,2.92
2023-10-06T05:46:12.634Z,2.70
2023-10-06T05:48:39.911Z,2.30
2023-10-06T05:51:10.107Z,2.60
2023-10-06T05:53:40.330Z,2.28
2023-10-06T05:56:08.888Z,2.88
2023-10-06T05:58:38.385Z,2.60
2023-10-06T06:01:11.698Z,2.38
2023-10-06T06:03:46.667Z,2.30
2023-10-06T06:06:23.647Z,2.28
2023-10-06T06:08:52.386Z,2.00
2023-10-06T06:11:19.022Z,2.25
2023-10-06T06:13:52.696Z,2.50
2023-10-06T06:16:22.702Z,2.33
2023-10-06T06:18:49.955Z,2.20
2023-10-06T06:21:17.767Z,2.53
2023-10-06T06:23:47.509Z,2.22
2023-10-06T06:26:18.270Z,2.58
2023-10-06T06:28:45.838Z,2.28
2023-10-06T06:31:19.526Z,2.53
2023-10-06T06:33:49.942Z,3.00
2023-10-06T06:36:16.674Z,2.88
2023-10-06T06:38:43.214Z,2.30
2023-10-06T06:41:09.818Z,2.22
2023-10-06T06:43:36.734Z,2.38
2023-10-06T06:46:03.319Z,2.20
2023-10-06T06:48:38.869Z,2.13
2023-10-06T06:51:06.662Z,2.05
2023-10-06T06:53:33.263Z,2.65
2023-10-06T06:55:59.777Z,2.13
2023-10-06T06:58:27.408Z,2.28
2023-10-06T07:00:53.922Z,1.48
2023-10-06T07:03:20.496Z,2.25
2023-10-06T07:05:47.020Z,2.35
2023-10-06T07:08:13.673Z,1.65
2023-10-06T07:10:47.695Z,2.83
2023-10-06T07:13:14.958Z,2.55
2023-10-06T07:15:42.884Z,2.85
2023-10-06T07:18:11.543Z,3.10
2023-10-06T07:20:38.426Z,2.38
2023-10-06T07:23:05.671Z,3.00
2023-10-06T07:25:32.490Z,2.38
2023-10-06T07:28:00.863Z,2.92
2023-10-06T07:30:30.464Z,2.90
2023-10-06T07:32:57.673Z,2.40
2023-10-06T07:35:32.642Z,1.98
2023-10-06T07:37:59.636Z,2.45
2023-10-06T07:40:29.055Z,2.40
2023-10-06T07:42:56.557Z,1.92
2023-10-06T07:45:25.376Z,2.42
2023-10-06T07:47:52.388Z,2.65
2023-10-06T07:50:19.624Z,2.50
2023-10-06T07:52:48.243Z,2.00
2023-10-06T07:55:15.210Z,2.72
2023-10-06T07:57:42.705Z,2.17
2023-10-06T08:00:10.205Z,2.30
2023-10-06T08:02:44.508Z,2.75
2023-10-06T08:05:13.276Z,3.25
2023-10-06T08:07:45.775Z,2.58
2023-10-06T08:10:16.819Z,2.53
2023-10-06T08:12:47.689Z,2.55
2023-10-06T08:15:22.479Z,2.35
2023-10-06T08:17:51.822Z,2.90
2023-10-06T08:20:18.717Z,3.08
2023-10-06T08:22:47.932Z,2.05
2023-10-06T08:25:19.621Z,2.03
2023-10-06T08:27:48.180Z,2.22
2023-10-06T08:30:20.614Z,2.35
2023-10-06T08:32:49.276Z,2.53
2023-10-06T08:35:16.399Z,3.22
2023-10-06T08:37:44.817Z,2.35
2023-10-06T08:40:20.493Z,2.35
2023-10-06T08:42:50.063Z,2.03
2023-10-06T08:45:22.371Z,2.08
2023-10-06T08:50:24.156Z,2.20
2023-10-06T08:52:55.208Z,1.95
2023-10-06T08:55:23.592Z,2.00
2023-10-06T08:57:54.289Z,1.95
2023-10-06T09:00:25.784Z,1.77
2023-10-06T09:02:55.017Z,2.03
2023-10-06T09:05:22.724Z,2.20
2023-10-06T09:08:00.253Z,1.80
2023-10-06T09:10:28.586Z,1.98
2023-10-06T09:13:18.507Z,2.45
2023-10-06T09:16:07.940Z,2.65
2023-10-06T09:18:41.150Z,3.13
2023-10-06T09:21:17.316Z,2.22
2023-10-06T09:23:44.885Z,1.98
2023-10-06T09:26:14.108Z,3.63
2023-10-06T09:28:55.235Z,4.00
2023-10-06T09:31:36.415Z,2.75
2023-10-06T09:34:03.356Z,2.03
2023-10-06T09:36:43.352Z,1.90
2023-10-06T09:39:15.491Z,2.03
2023-10-06T09:41:42.551Z,2.10
2023-10-06T09:44:13.456Z,1.52
2023-10-06T09:46:44.403Z,2.30
2023-10-06T09:49:13.900Z,2.38
2023-10-06T09:51:42.483Z,1.92
2023-10-06T09:54:11.508Z,1.83
2023-10-06T09:56:43.144Z,1.90
2023-10-06T09:59:13.578Z,1.75
2023-10-06T10:01:43.643Z,1.60
2023-10-06T10:06:47.178Z,2.67
2023-10-06T10:09:18.260Z,1.95
2023-10-06T10:12:02.305Z,2.15
2023-10-06T10:15:00.963Z,2.33
2023-10-06T10:17:45.204Z,1.40
2023-10-06T10:20:16.395Z,1.52
2023-10-06T10:22:44.323Z,2.35
2023-10-06T10:27:44.432Z,1.40
2023-10-06T10:30:14.138Z,1.27
2023-10-06T10:32:53.649Z,1.75
2023-10-06T10:35:20.369Z,1.40
2023-10-06T10:38:00.675Z,1.90
2023-10-06T10:40:47.885Z,1.63
2023-10-06T10:43:15.628Z,1.00
2023-10-06T10:45:46.335Z,0.70
2023-10-06T10:48:18.759Z,1.00
2023-10-06T10:50:54.191Z,1.52
2023-10-06T10:53:22.291Z,1.10
2023-10-06T10:55:49.752Z,1.98
2023-10-06T10:58:50.361Z,1.20
2023-10-06T11:01:33.471Z,1.20
2023-10-06T11:04:27.366Z,1.30
2023-10-06T11:06:56.642Z,1.10
2023-10-06T11:09:31.729Z,1.35
2023-10-06T11:12:23.179Z,1.20
2023-10-06T11:14:53.256Z,1.35
2023-10-06T11:17:24.461Z,1.02
2023-10-06T11:20:29.784Z,1.08
2023-10-06T11:23:00.853Z,1.23
2023-10-06T11:25:29.596Z,1.25
2023-10-06T11:28:09.859Z,1.38
2023-10-06T11:30:41.278Z,1.10
2023-10-06T11:33:10.125Z,1.75
2023-10-06T11:35:38.244Z,1.35
2023-10-06T11:38:13.275Z,1.42
2023-10-06T11:40:41.582Z,1.40
2023-10-06T11:43:13.934Z,1.30
2023-10-06T11:45:42.683Z,1.00
2023-10-06T11:48:26.062Z,0.93
2023-10-06T11:51:10.035Z,0.80
2023-10-06T11:53:38.727Z,1.02
2023-10-06T11:56:14.980Z,0.85
2023-10-06T11:58:43.156Z,0.93
2023-10-06T12:01:33.388Z,0.80
2023-10-06T12:04:01.805Z,1.08
2023-10-06T12:06:42.028Z,1.00
2023-10-06T12:09:09.653Z,0.95
2023-10-06T12:11:36.635Z,0.90
2023-10-06T12:14:04.930Z,1.00
2023-10-06T12:16:31.998Z,0.82
2023-10-06T12:18:58.605Z,0.80
2023-10-06T12:21:25.204Z,1.73
2023-10-06T12:23:53.665Z,1.77
2023-10-06T12:26:20.376Z,1.02
2023-10-06T12:28:47.548Z,1.00
2023-10-06T12:31:14.313Z,1.00
2023-10-06T12:33:41.057Z,0.60
2023-10-06T12:36:10.404Z,0.80
2023-10-06T12:38:37.461Z,0.60
2023-10-06T12:41:08.517Z,1.10
2023-10-06T12:43:37.899Z,0.90
2023-10-06T12:46:10.081Z,0.70
2023-10-06T12:48:40.407Z,0.80
2023-10-06T12:51:07.931Z,0.98
2023-10-06T12:53:34.735Z,0.70
2023-10-06T12:56:01.381Z,1.10
2023-10-06T12:58:27.918Z,0.77
2023-10-06T13:00:55.073Z,1.10
2023-10-06T13:03:23.217Z,0.75
2023-10-06T13:05:49.824Z,1.05
2023-10-06T13:08:22.529Z,0.80
2023-10-06T13:10:49.737Z,0.80
2023-10-06T13:13:18.970Z,1.05
2023-10-06T13:15:48.844Z,1.00
2023-10-06T13:18:18.834Z,1.02
2023-10-06T13:20:46.351Z,0.82
2023-10-06T13:23:12.922Z,0.80
2023-10-06T13:25:40.868Z,0.80
2023-10-06T13:28:16.282Z,1.25
2023-10-06T13:30:44.612Z,0.73
2023-10-06T13:33:11.705Z,0.80
2023-10-06T13:35:38.537Z,1.00
2023-10-06T13:38:06.164Z,0.75
2023-10-06T13:40:35.600Z,1.00
2023-10-06T13:43:02.278Z,1.00
2023-10-06T13:45:32.312Z,1.10
2023-10-06T13:48:04.434Z,1.02
2023-10-06T13:50:32.319Z,1.10
2023-10-06T13:52:58.975Z,1.17
2023-10-06T13:55:25.890Z,0.93
2023-10-06T13:57:53.895Z,1.00
2023-10-06T14:00:39.857Z,0.77
2023-10-06T14:03:08.765Z,0.90
2023-10-06T14:05:45.415Z,1.13
2023-10-06T14:08:15.093Z,1.02
2023-10-06T14:10:42.757Z,1.10
2023-10-06T14:13:12.461Z,0.80
2023-10-06T14:15:42.777Z,1.30
2023-10-06T14:18:14.529Z,0.95
2023-10-06T14:20:44.665Z,1.00
2023-10-06T14:25:41.955Z,0.90
2023-10-06T14:28:12.613Z,0.80
2023-10-06T14:30:44.705Z,0.98
2023-10-06T14:36:04.586Z,0.85
2023-10-06T14:38:44.490Z,1.10
2023-10-06T14:41:31.606Z,0.80
2023-10-06T14:44:18.730Z,0.95
2023-10-06T14:46:51.727Z,0.82
2023-10-06T14:49:28.782Z,0.90
2023-10-06T14:51:57.927Z,1.13
2023-10-06T14:54:32.727Z,1.10
2023-10-06T14:57:04.132Z,0.98
2023-10-06T14:59:33.621Z,0.80
2023-10-06T15:02:07.870Z,1.20
2023-10-06T15:04:35.787Z,1.20
2023-10-06T15:07:03.010Z,1.30
2023-10-06T15:09:31.826Z,0.88
2023-10-06T15:11:58.604Z,1.20
2023-10-06T15:14:26.595Z,1.02
2023-10-06T15:16:54.650Z,1.38
2023-10-06T15:19:26.210Z,1.40
2023-10-06T15:21:56.051Z,1.23
2023-10-06T15:24:22.947Z,1.15
2023-10-06T15:26:51.326Z,1.20
2023-10-06T15:29:21.902Z,1.20
2023-10-06T15:31:49.874Z,1.00
2023-10-06T15:34:16.997Z,1.08
2023-10-06T15:36:44.393Z,1.13
2023-10-06T15:39:19.928Z,1.10
2023-10-06T15:41:47.727Z,1.00
2023-10-06T15:44:15.897Z,0.88
2023-10-06T15:46:43.670Z,1.20
2023-10-06T15:49:18.255Z,1.50
2023-10-06T15:51:47.890Z,1.05
2023-10-06T15:54:14.447Z,1.00
2023-10-06T15:56:41.726Z,1.10
2023-10-06T15:59:15.703Z,1.27
2023-10-06T16:01:44.511Z,1.30
2023-10-06T16:04:13.569Z,1.10
2023-10-06T16:06:42.963Z,1.30
2023-10-06T16:09:10.890Z,1.40
2023-10-06T16:11:40.926Z,1.30
2023-10-06T16:14:07.777Z,1.33
2023-10-06T16:16:37.642Z,1.42
2023-10-06T16:19:05.159Z,1.50
2023-10-06T16:21:35.634Z,1.10
2023-10-06T16:24:06.772Z,1.20
2023-10-06T16:26:33.601Z,0.93
2023-10-06T16:29:00.284Z,1.25
2023-10-06T16:31:27.912Z,1.38
2023-10-06T16:33:55.297Z,1.48
2023-10-06T16:36:23.728Z,1.35
2023-10-06T16:38:51.958Z,1.30
2023-10-06T16:41:25.062Z,1.10
2023-10-06T16:43:58.739Z,1.40
2023-10-06T16:46:26.430Z,1.52
2023-10-06T16:48:53.701Z,1.70
2023-10-06T16:51:21.597Z,2.38
2023-10-06T16:53:49.573Z,2.75
2023-10-06T16:56:17.204Z,2.05
2023-10-06T16:58:43.850Z,2.30
2023-10-06T17:01:10.437Z,1.88
2023-10-06T17:03:37.481Z,2.03
2023-10-06T17:06:06.256Z,1.77
2023-10-06T17:08:33.022Z,1.77
2023-10-06T17:11:12.839Z,1.85
2023-10-06T17:13:39.365Z,2.47
2023-10-06T17:16:10.450Z,1.85
2023-10-06T17:18:37.577Z,2.10
2023-10-06T17:21:07.961Z,2.22
2023-10-06T17:23:34.959Z,2.25
2023-10-06T17:26:02.866Z,2.58
2023-10-06T17:28:30.256Z,2.92
2023-10-06T17:30:56.870Z,2.65
2023-10-06T17:33:23.485Z,2.60
2023-10-06T17:35:50.000Z,2.40
2023-10-06T17:38:19.525Z,2.65
2023-10-06T17:40:46.092Z,2.80
2023-10-06T17:43:13.319Z,2.58
2023-10-06T17:45:40.171Z,2.17
2023-10-06T17:48:07.382Z,2.38
2023-10-06T17:50:34.492Z,2.60
2023-10-06T17:53:01.008Z,3.50
2023-10-06T17:55:32.728Z,3.60
2023-10-06T17:57:59.982Z,3.90
2023-10-06T18:00:28.625Z,3.58
2023-10-06T18:02:55.648Z,3.20
2023-10-06T18:05:24.341Z,2.72
2023-10-06T18:07:51.696Z,3.22
2023-10-06T18:10:18.337Z,2.22
2023-10-06T18:12:44.979Z,1.95
2023-10-06T18:15:12.137Z,2.45
2023-10-06T18:17:38.819Z,2.33
2023-10-06T18:20:09.121Z,2.45
2023-10-06T18:22:37.431Z,2.22
2023-10-06T18:25:07.268Z,2.72
2023-10-06T18:27:34.136Z,3.55
2023-10-06T18:30:00.681Z,3.20
2023-10-06T18:32:27.237Z,2.65
2023-10-06T18:34:54.210Z,4.70
2023-10-06T18:37:20.783Z,4.05
2023-10-06T18:39:48.866Z,3.10
2023-10-06T18:42:15.423Z,3.03
2023-10-06T18:44:41.860Z,3.00
2023-10-06T18:47:08.468Z,3.38
2023-10-06T18:49:35.082Z,3.15
2023-10-06T18:52:01.982Z,2.42
2023-10-06T18:54:28.487Z,2.42
2023-10-06T18:56:56.602Z,2.72
2023-10-06T18:59:23.275Z,2.92
2023-10-06T19:01:49.996Z,2.00
2023-10-06T19:04:16.553Z,2.65
2023-10-06T19:06:43.134Z,2.97
2023-10-06T19:09:15.958Z,2.45
2023-10-06T19:11:42.699Z,2.45
2023-10-06T19:14:09.183Z,1.77
2023-10-06T19:16:36.606Z,2.40
2023-10-06T19:19:03.242Z,2.13
2023-10-06T19:21:29.768Z,2.45
2023-10-06T19:23:58.204Z,2.13
2023-10-06T19:26:25.724Z,2.08
2023-10-06T19:28:53.352Z,2.08
2023-10-06T19:31:20.149Z,1.70
2023-10-06T19:33:51.502Z,1.77
2023-10-06T19:36:18.596Z,2.00
2023-10-06T19:38:47.474Z,1.67
2023-10-06T19:41:18.737Z,2.35
2023-10-06T19:43:46.338Z,2.10
2023-10-06T19:46:15.127Z,2.15
2023-10-06T19:48:43.822Z,1.70
2023-10-06T19:51:11.198Z,1.90
2023-10-06T19:53:38.136Z,2.67
2023-10-06T19:56:05.499Z,1.98
2023-10-06T19:58:33.012Z,2.10
2023-10-06T20:01:00.122Z,1.90
2023-10-06T20:03:27.411Z,1.83
2023-10-06T20:05:57.481Z,1.75
2023-10-06T20:10:55.395Z,2.03
2023-10-06T20:13:25.952Z,2.13
2023-10-06T20:15:53.166Z,2.42
2023-10-06T20:18:20.890Z,2.17
2023-10-06T20:20:48.023Z,2.75
2023-10-06T20:23:14.657Z,1.98
2023-10-06T20:25:42.292Z,1.95
2023-10-06T20:28:10.333Z,1.92
2023-10-06T20:30:37.442Z,2.08
2023-10-06T20:33:04.270Z,1.98
2023-10-06T20:35:32.038Z,2.47
2023-10-06T20:37:59.603Z,2.25
2023-10-06T20:40:26.844Z,2.10
2023-10-06T20:42:57.594Z,2.40
2023-10-06T20:45:29.190Z,2.40
2023-10-06T20:47:56.728Z,2.22
2023-10-06T20:50:28.366Z,2.33
2023-10-06T20:52:55.765Z,2.95
2023-10-06T20:55:22.714Z,2.53
2023-10-06T20:57:49.847Z,2.20
2023-10-06T21:00:22.620Z,2.28
2023-10-06T21:02:49.815Z,2.42
2023-10-06T21:05:18.234Z,3.58
2023-10-06T21:07:45.727Z,3.72
2023-10-06T21:10:14.085Z,5.38
2023-10-06T21:12:45.118Z,2.67
2023-10-06T21:15:14.355Z,2.80
2023-10-06T21:17:43.638Z,2.85
2023-10-06T21:20:13.196Z,3.70
2023-10-06T21:22:40.922Z,3.78
2023-10-06T21:25:14.617Z,4.47
2023-10-06T21:27:42.149Z,3.50
2023-10-06T21:30:09.269Z,3.95
2023-10-06T21:32:38.822Z,3.35
2023-10-06T21:35:06.913Z,3.80
2023-10-06T21:37:34.608Z,3.85
2023-10-06T21:40:02.406Z,3.47
2023-10-06T21:42:29.561Z,2.90
2023-10-06T21:44:56.566Z,2.17
2023-10-06T21:47:23.744Z,2.58
2023-10-06T21:49:50.286Z,2.78
2023-10-06T21:52:16.822Z,2.58
2023-10-06T21:54:43.779Z,2.20
2023-10-06T21:57:14.079Z,2.67
2023-10-06T22:02:09.286Z,2.75
2023-10-06T22:04:36.269Z,2.78
2023-10-06T22:07:03.220Z,2.60
2023-10-06T22:09:29.870Z,2.30
2023-10-06T22:11:56.576Z,2.08
2023-10-06T22:14:23.150Z,2.17
2023-10-06T22:16:51.556Z,1.98
2023-10-06T22:19:18.220Z,1.98
2023-10-06T22:21:45.076Z,2.22
2023-10-06T22:24:14.700Z,2.72
2023-10-06T22:26:41.283Z,2.78
2023-10-06T22:29:07.893Z,2.55
2023-10-06T22:31:34.498Z,2.38
2023-10-06T22:34:01.081Z,2.63
2023-10-06T22:36:27.644Z,2.53
2023-10-06T22:38:55.389Z,2.03
2023-10-06T22:41:22.114Z,2.67
2023-10-06T22:43:48.793Z,2.63
2023-10-06T22:46:16.136Z,2.50
2023-10-06T22:48:45.319Z,2.50
2023-10-06T22:51:13.645Z,2.90
2023-10-06T22:53:40.145Z,3.17
2023-10-06T22:56:07.310Z,2.55
2023-10-06T22:58:33.955Z,2.72
2023-10-06T23:01:01.229Z,2.55
2023-10-06T23:03:27.912Z,2.45
2023-10-06T23:05:54.704Z,2.00
2023-10-06T23:08:21.805Z,2.08
2023-10-06T23:10:48.641Z,2.60
2023-10-06T23:13:15.244Z,2.20
2023-10-06T23:15:41.833Z,1.80
2023-10-06T23:18:12.508Z,2.53
2023-10-06T23:20:45.936Z,2.08
2023-10-06T23:23:12.534Z,2.58
2023-10-06T23:25:47.499Z,2.30
2023-10-06T23:28:14.544Z,2.13
2023-10-06T23:30:41.148Z,2.00
2023-10-06T23:33:08.305Z,2.40
2023-10-06T23:35:35.469Z,1.58
2023-10-06T23:38:07.589Z,2.05
2023-10-06T23:40:35.582Z,2.33
2023-10-06T23:43:02.483Z,2.10
2023-10-06T23:45:32.190Z,2.08
2023-10-06T23:48:00.211Z,1.88
2023-10-06T23:50:30.214Z,2.08
2023-10-06T23:53:01.191Z,2.10
2023-10-06T23:55:28.956Z,1.80
2023-10-06T23:57:55.938Z,1.85
